Time;durP1;ratioP1;P1;durP2;ratioP2;P2;SDS_P1;SDS_P2;PMS_P1;PMS_P2;Temp;Humidity;BMP_temperature;BMP_pressure;BME280_temperature;BME280_humidity;BME280_pressure;Samples;Min_cycle;Max_cycle;Signal;HPM_P1;HPM_P2
2021/12/08 06:01:56;;;;;;;3.80;3.50;;;;;;;9.30;60.58;97280.28;6904483;23;20231;-90
2021/12/08 06:05:19;;;;;;;3.97;3.53;;;;;;;8.67;61.71;97247.03;6900138;28;20212;-89
2021/12/08 06:08:42;;;;;;;6.00;4.00;;;;;;;8.08;62.04;97134.31;6898117;28;20221;-91
2021/12/08 06:12:09;;;;;;;5.10;4.13;;;;;;;8.29;61.83;97154.47;6898761;28;20218;-91
2021/12/08 06:15:36;;;;;;;4.17;3.77;;;;;;;8.06;61.12;97088.13;6881451;28;20248;-94
2021/12/08 06:19:01;;;;;;;4.63;4.10;;;;;;;8.89;61.44;97260.75;6905155;28;20238;-92
2021/12/08 06:22:25;;;;;;;6.50;4.63;;;;;;;7.42;62.58;97039.78;6904167;28;20212;-91
2021/12/08 06:25:48;;;;;;;5.37;4.87;;;;;;;8.64;62.84;97266.31;6903983;28;20561;-92
2021/12/08 06:29:15;;;;;;;5.10;4.60;;;;;;;7.90;63.11;97130.91;6886563;28;20767;-91
2021/12/08 06:32:38;;;;;;;4.70;4.30;;;;;;;7.59;62.36;97031.91;6901302;28;20217;-91
2021/12/08 06:36:07;;;;;;;5.50;5.00;;;;;;;7.58;62.73;97023.06;6903508;28;20286;-91
2021/12/08 06:39:32;;;;;;;6.33;4.30;;;;;;;7.54;64.56;97142.53;6903166;28;20219;-92
2021/12/08 06:42:57;;;;;;;5.80;4.90;;;;;;;7.55;63.82;97138.81;6891012;28;20212;-91
2021/12/08 06:46:20;;;;;;;6.03;4.40;;;;;;;7.53;62.85;97014.88;6901577;28;20197;-91
2021/12/08 06:49:45;;;;;;;4.33;3.93;;;;;;;8.14;61.77;97071.66;6901958;28;20657;-90
2021/12/08 06:53:09;;;;;;;5.70;5.13;;;;;;;9.11;61.31;97258.06;6903114;28;20215;-91
2021/12/08 06:56:35;;;;;;;4.80;4.30;;;;;;;7.97;61.29;97014.38;6901749;28;20708;-90
2021/12/08 07:00:01;;;;;;;6.33;4.40;;;;;;;8.47;60.73;97090.75;6902332;28;20219;-90
2021/12/08 07:03:36;;;;;;;4.27;3.80;;;;;;;8.71;60.28;97115.78;6903206;28;20210;-90
2021/12/08 07:07:12;;;;;;;6.17;3.53;;;;;;;8.74;60.65;97142.16;6903319;28;20207;-89
2021/12/08 07:10:40;;;;;;;4.30;3.90;;;;;;;8.03;61.90;97085.09;6903024;28;20220;-90
2021/12/08 07:14:02;;;;;;;4.40;4.00;;;;;;;8.33;62.30;97186.03;6903253;28;20258;-90
2021/12/08 07:17:28;;;;;;;5.57;4.53;;;;;;;7.12;63.73;97055.06;6903353;28;20256;-91
2021/12/08 07:20:53;;;;;;;5.17;4.63;;;;;;;7.39;65.18;97131.41;6903377;28;20316;-89
2021/12/08 07:24:20;;;;;;;4.43;3.80;;;;;;;8.16;64.02;97197.59;6903747;28;20209;-90
2021/12/08 07:27:45;;;;;;;4.87;4.00;;;;;;;7.38;64.14;97060.03;6903253;28;20291;-90
2021/12/08 07:31:10;;;;;;;4.80;4.10;;;;;;;8.82;63.28;97244.72;6886346;28;20235;-90
2021/12/08 07:34:36;;;;;;;4.00;3.60;;;;;;;8.75;62.88;97203.72;6902617;28;20210;-90
2021/12/08 07:37:59;;;;;;;5.77;4.40;;;;;;;8.41;62.38;97134.66;6901722;28;20234;-90
2021/12/08 07:41:30;;;;;;;5.20;4.40;;;;;;;7.97;61.38;97035.03;6902273;28;20223;-90
2021/12/08 07:44:58;;;;;;;7.00;5.23;;;;;;;9.47;60.79;97276.66;6901946;28;20206;-90
2021/12/08 07:48:29;;;;;;;6.57;4.70;;;;;;;8.67;61.09;97149.50;6885254;28;20256;-90
2021/12/08 07:51:53;;;;;;;6.10;5.20;;;;;;;8.24;62.51;97119.47;6901442;28;20210;-90
2021/12/08 07:55:20;;;;;;;5.87;5.20;;;;;;;8.43;63.14;97175.50;6901231;28;20701;-90
2021/12/08 07:58:44;;;;;;;5.97;4.70;;;;;;;7.57;63.26;97042.06;6901760;28;20244;-90
2021/12/08 08:02:08;;;;;;;8.00;5.03;;;;;;;7.92;62.74;97014.25;6901540;28;20264;-90
2021/12/08 08:05:32;;;;;;;4.83;4.43;;;;;;;8.68;61.51;97106.31;6901558;28;20556;-90
2021/12/08 08:08:55;;;;;;;5.13;4.23;;;;;;;8.33;60.98;97013.38;6901029;28;20212;-90
2021/12/08 08:12:20;;;;;;;6.77;4.77;;;;;;;8.51;60.64;97035.53;6901141;28;20214;-90
2021/12/08 08:15:46;;;;;;;6.43;5.80;;;;;;;9.56;60.51;97212.56;6901000;28;20242;-90
2021/12/08 08:19:16;;;;;;;7.23;6.53;;;;;;;9.25;61.28;97184.19;6901047;28;20216;-90
2021/12/08 08:22:38;;;;;;;9.83;7.37;;;;;;;9.42;61.30;97267.66;6900571;28;20358;-90
2021/12/08 08:26:02;;;;;;;7.60;5.63;;;;;;;8.17;61.42;97014.84;6900099;28;20217;-89
2021/12/08 08:29:25;;;;;;;5.10;4.23;;;;;;;8.74;61.71;97126.88;6900814;28;20218;-89
2021/12/08 08:32:51;;;;;;;4.87;4.47;;;;;;;9.64;61.18;97223.75;6900991;28;20216;-90
2021/12/08 08:36:18;;;;;;;5.70;4.60;;;;;;;8.61;60.26;97029.56;6900184;28;20574;-91
2021/12/08 08:39:43;;;;;;;4.93;4.23;;;;;;;9.55;59.95;97165.16;6882726;28;20214;-90
2021/12/08 08:43:05;;;;;;;5.30;4.80;;;;;;;8.79;60.05;97078.59;6900197;28;20222;-90
2021/12/08 08:46:33;;;;;;;8.13;4.70;;;;;;;9.82;60.67;97273.91;6883347;28;20295;-90
2021/12/08 08:49:57;;;;;;;5.63;5.00;;;;;;;8.06;60.67;97007.63;6900567;28;20201;-90
2021/12/08 08:53:26;;;;;;;5.07;4.57;;;;;;;9.48;60.86;97200.28;6899920;28;20654;-90
2021/12/08 08:56:53;;;;;;;4.70;4.30;;;;;;;8.20;62.31;97057.34;6900261;28;20320;-90
2021/12/08 09:00:23;;;;;;;5.77;4.60;;;;;;;9.15;62.56;97237.72;6897955;28;20299;-91
2021/12/08 09:03:49;;;;;;;4.53;4.13;;;;;;;8.95;62.73;97212.25;6899489;28;20557;-90
2021/12/08 09:07:18;;;;;;;5.00;4.50;;;;;;;9.44;60.82;97212.56;6899011;28;20237;-89
2021/12/08 09:10:47;;;;;;;4.73;4.33;;;;;;;9.37;59.76;97181.47;6882768;28;20219;-90
2021/12/08 09:14:15;;;;;;;4.50;3.97;;;;;;;9.61;59.71;97205.41;6882639;28;20658;-89
2021/12/08 09:17:40;;;;;;;4.83;4.17;;;;;;;8.79;59.62;97075.09;6872589;28;20593;-90
2021/12/08 09:21:14;;;;;;;5.37;4.73;;;;;;;8.54;60.56;97114.84;6873693;28;20208;-90
2021/12/08 09:24:45;;;;;;;5.93;4.67;;;;;;;9.02;62.37;97229.91;6899405;28;20260;-90
2021/12/08 09:28:15;;;;;;;6.10;4.70;;;;;;;8.49;60.71;97050.25;6899499;28;20204;-90
2021/12/08 09:31:39;;;;;;;4.93;4.43;;;;;;;9.43;61.33;97290.78;6896771;28;20214;-91
2021/12/08 09:35:11;;;;;;;5.63;4.33;;;;;;;9.02;60.02;97118.88;6898501;28;20216;-90
2021/12/08 09:38:37;;;;;;;4.70;4.20;;;;;;;9.70;59.84;97243.53;6897822;28;20321;-91
2021/12/08 09:42:03;;;;;;;5.63;4.27;;;;;;;9.24;59.68;97138.72;6898905;28;20242;-90
2021/12/08 09:45:31;;;;;;;5.60;4.50;;;;;;;8.85;59.97;97131.38;6898812;28;20662;-91
2021/12/08 09:49:01;;;;;;;6.03;4.40;;;;;;;9.07;60.61;97193.44;6876564;28;20215;-91
2021/12/08 09:56:40;;;;;;;3.97;3.50;;;;;;;8.77;59.56;97056.53;6877454;28;20693;-91
2021/12/08 10:00:05;;;;;;;3.57;3.27;;;;;;;9.42;59.64;97192.34;6873209;28;20220;-91
2021/12/08 10:03:32;;;;;;;6.73;3.17;;;;;;;10.03;59.03;97266.03;6876612;28;20246;-91
2021/12/08 10:07:05;;;;;;;3.60;3.30;;;;;;;9.03;58.46;97064.09;6877519;28;20301;-90
2021/12/08 10:11:29;;;;;;;3.60;3.30;;;;;;;8.97;58.38;97045.38;6877074;28;20212;-91
2021/12/08 11:01:12;;;;;;;3.47;3.00;;;;;;;10.78;56.98;97204.66;6590273;30;20311;-90
2021/12/08 11:30:30;;;;;;;6.13;5.47;;;;;;;10.98;57.81;97208.47;6541668;29;20232;-89
2021/12/08 11:39:07;;;;;;;10.33;8.60;;;;;;;10.84;58.53;97171.31;6712056;29;20235;-90
2021/12/08 11:43:26;;;;;;;6.83;6.13;;;;;;;9.34;58.50;96950.69;6715333;29;20227;-90
2021/12/08 11:51:32;;;;;;;10.60;6.70;;;;;;;10.50;58.48;97084.28;6684034;29;20258;-90
2021/12/08 12:04:01;;;;;;;7.37;6.33;;;;;;;10.13;60.62;97163.94;6705199;29;20626;-90
2021/12/08 12:12:20;;;;;;;4.83;4.27;;;;;;;10.14;59.39;97173.66;6791842;29;20231;-89
2021/12/08 12:25:13;;;;;;;4.07;3.77;;;;;;;10.71;57.41;97179.75;6740367;29;20278;-89
2021/12/08 12:33:18;;;;;;;5.87;4.90;;;;;;;9.96;58.64;97052.69;6844564;29;20192;-89
2021/12/08 12:40:22;;;;;;;7.33;6.10;;;;;;;10.28;57.96;97064.53;6833229;28;20297;-90
2021/12/08 12:43:50;;;;;;;6.53;5.87;;;;;;;10.26;57.88;97034.34;6845023;29;20297;-89
2021/12/08 13:09:08;;;;;;;5.60;4.37;;;;;;;10.82;57.78;97098.81;6799968;29;20220;-89
2021/12/08 13:17:26;;;;;;;5.83;5.33;;;;;;;11.16;58.41;97132.69;6738281;29;20235;-89
2021/12/08 13:21:07;;;;;;;6.00;5.40;;;;;;;10.99;58.51;97123.81;6775083;29;20240;-90
2021/12/08 13:29:19;;;;;;;7.93;6.67;;;;;;;9.68;60.09;96941.59;6808708;29;20214;-90
2021/12/08 13:33:31;;;;;;;6.93;6.23;;;;;;;10.90;59.95;97092.16;6814996;29;20301;-90
2021/12/08 13:37:30;;;;;;;6.40;5.80;;;;;;;11.15;59.21;97122.97;6836175;28;20331;-89
2021/12/08 13:41:37;;;;;;;6.70;5.10;;;;;;;9.75;58.78;96926.91;6899654;28;20227;-90
2021/12/08 13:45:31;;;;;;;7.50;6.33;;;;;;;10.15;59.70;97002.94;6898602;28;20231;-90
2021/12/08 13:49:38;;;;;;;7.13;6.13;;;;;;;11.02;59.14;97127.91;6842887;29;20222;-90
2021/12/08 13:57:37;;;;;;;8.17;6.73;;;;;;;9.79;58.70;96917.28;6815201;28;20271;-90
2021/12/08 14:01:01;;;;;;;10.17;7.13;;;;;;;10.10;58.82;97015.50;6817321;29;20304;-90
2021/12/08 14:04:26;;;;;;;7.67;6.27;;;;;;;10.55;58.63;97065.50;6817118;29;20213;-90
2021/12/08 14:07:51;;;;;;;8.37;7.00;;;;;;;11.04;58.67;97168.94;6817273;29;20216;-91
2021/12/08 14:11:23;;;;;;;8.23;6.77;;;;;;;10.03;58.83;96991.44;6801098;29;20235;-90
2021/12/08 14:14:59;;;;;;;10.03;7.07;;;;;;;10.71;58.87;97133.91;6817112;29;20296;-91
2021/12/08 14:18:39;;;;;;;9.30;7.33;;;;;;;10.45;59.21;97083.41;6816627;29;20348;-90
2021/12/08 14:22:03;;;;;;;10.53;7.93;;;;;;;10.82;59.82;97174.28;6812583;29;20202;-90
2021/12/08 14:25:47;;;;;;;8.00;7.20;;;;;;;10.43;59.68;97075.56;6842376;28;20215;-90
2021/12/08 14:29:15;;;;;;;9.50;7.70;;;;;;;10.53;59.47;97096.44;6866814;28;20205;-91
2021/12/08 14:32:38;;;;;;;8.47;7.33;;;;;;;11.12;58.90;97177.44;6872647;28;20655;-90
2021/12/08 14:36:02;;;;;;;10.23;7.57;;;;;;;9.37;60.08;96951.03;6872011;28;20223;-90
2021/12/08 14:39:29;;;;;;;9.37;7.90;;;;;;;10.09;60.01;97048.91;6876195;28;20226;-90
2021/12/08 14:42:51;;;;;;;7.87;6.57;;;;;;;10.16;59.53;97042.25;6877516;28;20231;-90
2021/12/08 14:46:18;;;;;;;8.57;7.33;;;;;;;10.00;59.79;97029.59;6876337;28;20299;-90
2021/12/08 14:49:43;;;;;;;16.23;8.90;;;;;;;10.83;59.83;97175.06;6876285;28;20211;-90
2021/12/08 14:53:13;;;;;;;8.17;7.30;;;;;;;10.10;59.21;97048.63;6876484;28;20202;-90
2021/12/08 14:56:36;;;;;;;12.53;8.27;;;;;;;9.43;60.24;97036.13;6880727;28;20248;-90
2021/12/08 15:00:01;;;;;;;8.20;7.40;;;;;;;10.35;59.96;97124.47;6903282;28;20215;-91
2021/12/08 15:03:24;;;;;;;9.40;7.50;;;;;;;9.90;59.73;97028.59;6890486;28;20196;-90
2021/12/08 15:06:53;;;;;;;9.13;8.17;;;;;;;10.77;59.15;97151.81;6885597;28;20215;-91
2021/12/08 15:10:17;;;;;;;8.93;8.03;;;;;;;9.64;58.59;96962.78;6902905;28;20215;-91
2021/12/08 15:13:40;;;;;;;10.73;7.97;;;;;;;10.22;59.70;97108.59;6903287;28;20217;-91
2021/12/08 15:17:09;;;;;;;13.07;11.03;;;;;;;10.15;62.13;97190.63;6902859;28;20246;-91
2021/12/08 15:20:37;;;;;;;12.57;10.77;;;;;;;9.47;61.46;97029.19;6903799;28;20198;-90
2021/12/08 15:24:09;;;;;;;10.80;9.67;;;;;;;10.28;60.83;97106.84;6902452;28;20221;-90
2021/12/08 15:27:37;;;;;;;13.87;11.33;;;;;;;10.54;60.88;97168.13;6902954;28;20207;-92
2021/12/08 15:31:01;;;;;;;11.47;9.50;;;;;;;10.25;59.87;97088.44;6903799;28;20271;-91
2021/12/08 15:34:33;;;;;;;16.00;11.73;;;;;;;9.59;61.15;97099.06;6903231;28;20212;-91
2021/12/08 15:38:06;;;;;;;13.73;11.47;;;;;;;8.59;63.39;97043.22;6901915;28;20228;-91
2021/12/08 15:41:32;;;;;;;13.63;11.13;;;;;;;9.25;62.51;97070.44;6894087;28;20220;-90
2021/12/08 15:44:56;;;;;;;13.67;9.93;;;;;;;9.99;61.98;97121.38;6901162;28;20313;-92
2021/12/08 15:52:02;;;;;;;12.67;10.93;;;;;;;9.66;61.33;97048.63;6911991;28;20210;-90
2021/12/08 15:55:28;;;;;;;11.20;10.00;;;;;;;9.72;60.67;97047.66;6925625;28;20284;-90
2021/12/08 15:58:55;;;;;;;15.87;11.37;;;;;;;9.70;60.37;97039.03;6902941;28;20728;-91
2021/12/08 16:02:20;;;;;;;16.90;14.57;;;;;;;9.47;60.07;97031.06;6900112;28;20235;-91
2021/12/08 16:05:45;;;;;;;14.07;10.87;;;;;;;9.85;59.36;97071.56;6901467;28;20343;-91
2021/12/08 16:09:29;;;;;;;13.70;11.43;;;;;;;9.39;60.05;97036.84;6890852;28;20210;-92
2021/12/08 16:12:59;;;;;;;15.07;12.27;;;;;;;9.06;60.45;96982.97;6855625;28;20664;-91
2021/12/08 16:16:30;;;;;;;13.70;11.90;;;;;;;9.51;60.50;97078.75;6892908;28;20202;-90
2021/12/08 16:19:54;;;;;;;15.33;12.13;;;;;;;9.10;60.64;96965.31;6898182;28;20219;-90
2021/12/08 16:23:35;;;;;;;14.00;11.97;;;;;;;9.53;60.68;97098.19;6899433;28;20244;-90
2021/12/08 16:27:03;;;;;;;12.47;10.90;;;;;;;10.44;60.57;97213.75;6882308;28;20299;-91
2021/12/08 16:39:19;;;;;;;12.57;9.60;;;;;;;8.96;60.71;96987.31;6736003;29;20244;-91
2021/12/08 16:55:54;;;;;;;15.93;12.43;;;;;;;10.23;59.40;97199.13;6610920;29;20234;-90
2021/12/08 16:59:24;;;;;;;18.50;14.27;;;;;;;9.46;61.29;97166.63;6662143;29;20304;-91
2021/12/08 17:03:28;;;;;;;17.27;14.27;;;;;;;9.71;61.25;97204.78;6662947;29;20307;-91
2021/12/08 17:06:54;;;;;;;18.30;13.97;;;;;;;10.11;60.99;97248.69;6658488;29;20801;-91
2021/12/08 17:13:58;;;;;;;17.67;13.53;;;;;;;9.40;61.60;97154.13;6704976;29;20480;-91
2021/12/08 17:17:33;;;;;;;17.97;13.90;;;;;;;9.80;61.30;97173.78;6764136;29;20231;-91
2021/12/08 17:20:58;;;;;;;16.50;12.80;;;;;;;9.89;61.01;97207.31;6766954;28;20258;-91
2021/12/08 17:24:21;;;;;;;17.00;13.40;;;;;;;8.86;61.15;97044.38;6872021;28;20206;-90
2021/12/08 17:27:43;;;;;;;22.47;16.90;;;;;;;8.95;61.12;97053.69;6872533;28;20215;-92
2021/12/08 17:31:18;;;;;;;19.40;14.33;;;;;;;9.53;61.49;97175.34;6871702;28;20212;-91
2021/12/08 17:34:44;;;;;;;23.77;15.47;;;;;;;9.16;62.12;97157.91;6869468;28;20210;-91
2021/12/08 17:38:10;;;;;;;19.40;14.50;;;;;;;9.82;61.69;97207.47;6870434;28;20345;-92
2021/12/08 17:41:41;;;;;;;23.30;18.97;;;;;;;8.92;62.54;97112.47;6871797;28;20211;-92
2021/12/08 17:45:05;;;;;;;26.03;19.70;;;;;;;8.54;61.46;96999.34;6871836;28;20204;-91
2021/12/08 17:48:31;;;;;;;37.47;30.27;;;;;;;8.87;62.21;97120.41;6874661;28;20251;-91
2021/12/08 17:51:54;;;;;;;29.77;20.13;;;;;;;9.94;62.43;97267.47;6878507;28;20206;-91
2021/12/08 17:55:17;;;;;;;26.67;20.97;;;;;;;9.40;61.99;97184.50;6899149;28;20297;-91
2021/12/08 17:58:41;;;;;;;25.30;18.63;;;;;;;9.14;61.85;97171.56;6898330;28;20242;-91
2021/12/08 18:02:03;;;;;;;21.10;16.30;;;;;;;8.65;62.20;97046.84;6903967;28;20237;-90
2021/12/08 18:05:31;;;;;;;22.27;17.07;;;;;;;8.85;61.71;97041.91;6897460;28;20250;-91
2021/12/08 18:08:53;;;;;;;20.93;15.03;;;;;;;9.04;61.49;97117.59;6895251;28;20227;-91
2021/12/08 18:12:16;;;;;;;20.63;14.57;;;;;;;8.89;62.23;97116.44;6897815;28;20215;-91
2021/12/08 18:15:39;;;;;;;19.73;15.33;;;;;;;9.96;61.45;97275.28;6885459;28;20204;-91
2021/12/08 18:19:04;;;;;;;19.13;14.37;;;;;;;8.81;61.67;97065.75;6902329;28;20230;-90
2021/12/08 18:22:28;;;;;;;17.30;13.33;;;;;;;8.98;61.13;97065.84;6904132;28;20587;-91
2021/12/08 18:25:53;;;;;;;21.03;16.40;;;;;;;9.85;61.19;97241.97;6902471;28;20794;-92
2021/12/08 18:29:15;;;;;;;22.00;15.40;;;;;;;8.65;62.44;97128.25;6902669;28;20209;-91
2021/12/08 18:32:39;;;;;;;20.57;16.40;;;;;;;9.42;62.37;97232.69;6876028;28;20218;-91
2021/12/08 18:36:17;;;;;;;19.60;14.10;;;;;;;9.56;61.59;97218.75;6876231;28;20215;-91
2021/12/08 18:39:41;;;;;;;21.70;15.07;;;;;;;8.81;62.28;97148.22;6876929;28;20267;-91
2021/12/08 18:43:06;;;;;;;25.33;18.07;;;;;;;9.39;63.20;97300.41;6876546;28;20213;-92
2021/12/08 18:46:40;;;;;;;24.23;17.73;;;;;;;8.62;63.54;97133.28;6876700;28;20334;-91
2021/12/08 18:50:05;;;;;;;24.63;16.57;;;;;;;8.88;63.13;97155.13;6873606;28;20206;-92
2021/12/08 18:53:28;;;;;;;23.90;19.17;;;;;;;8.98;62.78;97184.09;6858717;28;20214;-92
2021/12/08 18:56:54;;;;;;;25.73;18.57;;;;;;;9.32;62.70;97281.69;6882268;28;20235;-92
2021/12/08 19:00:21;;;;;;;31.10;20.33;;;;;;;8.72;63.04;97171.13;6901419;28;20241;-92
2021/12/08 19:03:45;;;;;;;17.20;13.93;;;;;;;8.65;64.39;97275.16;6899225;28;20209;-91
2021/12/08 19:07:07;;;;;;;9.67;8.03;;;;;;;9.28;62.86;97347.75;6901417;28;20674;-91
2021/12/08 19:10:35;;;;;;;8.23;5.17;;;;;;;7.94;61.35;97119.47;6901234;28;20207;-91
2021/12/08 19:14:06;;;;;;;9.00;5.73;;;;;;;9.49;59.12;97271.84;6902257;28;20211;-92
2021/12/08 19:17:34;;;;;;;8.13;5.53;;;;;;;8.05;59.31;97115.19;6901385;28;20207;-92
2021/12/08 19:20:59;;;;;;;7.97;5.90;;;;;;;8.70;59.96;97206.28;6901922;28;20207;-92
2021/12/08 19:24:32;;;;;;;8.10;5.37;;;;;;;8.73;59.34;97159.31;6901919;28;20234;-92
2021/12/08 19:27:57;;;;;;;11.83;5.50;;;;;;;9.38;59.37;97286.13;6901419;28;20210;-92
2021/12/08 19:31:34;;;;;;;5.73;4.30;;;;;;;8.70;59.37;97194.69;6883094;28;20210;-92
2021/12/08 19:35:24;;;;;;;11.13;5.10;;;;;;;8.64;59.50;97215.25;6900497;28;20294;-92
2021/12/08 19:38:54;;;;;;;10.83;6.07;;;;;;;9.67;59.39;97346.22;6901396;28;20231;-92
2021/12/08 19:42:47;;;;;;;17.47;8.17;;;;;;;8.21;59.93;97127.97;6901389;28;20209;-91
2021/12/08 19:58:45;;;;;;;9.33;6.00;;;;;;;9.25;60.23;97317.81;6810623;29;20244;-93
2021/12/08 20:02:32;;;;;;;9.50;4.87;;;;;;;9.26;58.80;97258.41;6818357;29;20224;-92
2021/12/08 20:06:29;;;;;;;10.03;5.53;;;;;;;9.30;59.39;97316.06;6819143;29;20211;-93
2021/12/08 20:09:54;;;;;;;8.47;4.93;;;;;;;8.19;60.01;97163.06;6819214;29;20707;-93
2021/12/08 20:13:30;;;;;;;4.93;4.10;;;;;;;9.64;59.46;97384.38;6819577;29;20209;-94
2021/12/08 20:16:56;;;;;;;8.77;6.37;;;;;;;8.03;60.33;97139.59;6819014;29;20227;-91
2021/12/08 20:20:22;;;;;;;7.13;4.23;;;;;;;9.50;59.75;97374.91;6817490;29;20231;-91
2021/12/08 20:23:50;;;;;;;7.20;3.83;;;;;;;8.51;60.13;97253.09;6817439;29;20215;-90
2021/12/08 20:27:14;;;;;;;7.20;3.67;;;;;;;8.52;59.63;97217.09;6800496;29;20209;-91
2021/12/08 20:30:38;;;;;;;6.37;3.40;;;;;;;8.84;59.84;97258.75;6844541;28;20210;-90
2021/12/08 20:34:02;;;;;;;6.77;4.80;;;;;;;8.93;59.32;97256.53;6882416;28;20223;-91
2021/12/08 20:37:28;;;;;;;5.00;4.60;;;;;;;8.95;59.13;97259.81;6889165;28;20722;-91
2021/12/08 20:40:53;;;;;;;11.37;5.07;;;;;;;7.74;59.06;97150.31;6895791;28;20225;-91
2021/12/08 20:44:19;;;;;;;10.40;7.30;;;;;;;8.98;60.26;97335.44;6895177;28;20209;-90
2021/12/08 20:47:45;;;;;;;6.30;4.40;;;;;;;8.31;59.74;97195.34;6897368;28;20216;-90
2021/12/08 20:51:15;;;;;;;14.13;5.60;;;;;;;8.64;59.31;97242.13;6896527;28;20252;-91
2021/12/08 20:54:39;;;;;;;8.93;4.43;;;;;;;8.91;59.32;97274.75;6896918;28;20201;-90
2021/12/08 20:58:16;;;;;;;7.77;4.13;;;;;;;9.52;58.87;97364.72;6878983;28;20594;-91
2021/12/08 21:01:51;;;;;;;5.20;3.93;;;;;;;8.54;58.54;97227.63;6892394;28;20222;-90
2021/12/08 21:05:13;;;;;;;5.47;4.00;;;;;;;8.88;58.39;97275.22;6878951;28;20205;-90
2021/12/08 21:08:35;;;;;;;6.23;4.10;;;;;;;7.89;58.23;97127.41;6896776;28;20234;-91
2021/12/08 21:11:59;;;;;;;6.90;3.80;;;;;;;8.91;58.76;97340.06;6896330;28;20577;-90
2021/12/08 21:15:25;;;;;;;6.83;3.63;;;;;;;8.99;58.59;97332.50;6896217;28;20238;-91
2021/12/08 21:18:51;;;;;;;7.87;3.53;;;;;;;7.75;58.09;97122.44;6898832;28;20293;-90
2021/12/08 21:22:16;;;;;;;4.93;3.37;;;;;;;8.97;58.80;97331.09;6899022;28;20666;-90
2021/12/08 21:25:38;;;;;;;5.33;3.50;;;;;;;8.50;58.09;97250.63;6898044;28;20229;-90
2021/12/08 21:29:04;;;;;;;10.30;6.20;;;;;;;8.74;58.39;97298.81;6881562;28;20552;-90
2021/12/08 21:32:26;;;;;;;7.47;5.23;;;;;;;8.13;58.24;97187.34;6898930;28;20226;-90
2021/12/08 21:35:49;;;;;;;8.63;5.10;;;;;;;8.50;58.60;97226.44;6898698;28;20215;-91
2021/12/08 21:39:13;;;;;;;7.07;4.40;;;;;;;9.55;57.91;97364.25;6898206;28;20225;-90
2021/12/08 21:42:35;;;;;;;10.53;4.03;;;;;;;8.71;58.90;97298.44;6898183;28;20209;-90
2021/12/08 21:45:59;;;;;;;8.93;4.20;;;;;;;8.26;58.79;97209.44;6900202;28;20349;-89
2021/12/08 21:49:23;;;;;;;9.13;4.20;;;;;;;8.49;59.11;97244.41;6904090;28;20229;-89
2021/12/08 21:52:45;;;;;;;11.13;4.97;;;;;;;7.89;58.85;97172.19;6886262;28;20345;-90
2021/12/08 21:56:34;;;;;;;10.67;5.17;;;;;;;9.13;59.59;97361.88;6886084;28;20234;-91
